sensor_id;sensor_type;location;lat;lon;timestamp;P1;durP1;ratioP1;P2;durP2;ratioP2
52480;SDS011;38393;52.404;13.532;2023-08-06T00:01:13;14.90;;;9.77;;
52480;SDS011;38393;52.404;13.532;2023-08-06T00:03:38;13.00;;;9.57;;
52480;SDS011;38393;52.404;13.532;2023-08-06T00:06:07;13.00;;;9.38;;
52480;SDS011;38393;52.404;13.532;2023-08-06T00:08:32;14.05;;;9.60;;
52480;SDS011;38393;52.404;13.532;2023-08-06T00:10:58;12.65;;;9.88;;
52480;SDS011;38393;52.404;13.532;2023-08-06T00:13:23;12.07;;;9.40;;
52480;SDS011;38393;52.404;13.532;2023-08-06T00:15:48;11.68;;;9.13;;
52480;SDS011;38393;52.404;13.532;2023-08-06T00:18:14;12.00;;;9.07;;
52480;SDS011;38393;52.404;13.532;2023-08-06T00:20:39;12.77;;;8.68;;
52480;SDS011;38393;52.404;13.532;2023-08-06T00:23:06;12.90;;;8.60;;
52480;SDS011;38393;52.404;13.532;2023-08-06T00:25:32;11.85;;;8.80;;
52480;SDS011;38393;52.404;13.532;2023-08-06T00:27:57;11.05;;;8.02;;
52480;SDS011;38393;52.404;13.532;2023-08-06T00:30:22;11.25;;;8.82;;
52480;SDS011;38393;52.404;13.532;2023-08-06T00:32:48;12.98;;;9.32;;
52480;SDS011;38393;52.404;13.532;2023-08-06T00:35:14;10.68;;;8.55;;
52480;SDS011;38393;52.404;13.532;2023-08-06T00:37:39;12.25;;;8.80;;
52480;SDS011;38393;52.404;13.532;2023-08-06T00:40:05;12.38;;;8.60;;
52480;SDS011;38393;52.404;13.532;2023-08-06T00:42:32;11.70;;;9.00;;
52480;SDS011;38393;52.404;13.532;2023-08-06T00:44:57;10.45;;;8.70;;
52480;SDS011;38393;52.404;13.532;2023-08-06T00:47:23;12.43;;;8.73;;
52480;SDS011;38393;52.404;13.532;2023-08-06T00:49:49;14.07;;;8.88;;
52480;SDS011;38393;52.404;13.532;2023-08-06T00:52:14;10.80;;;9.18;;
52480;SDS011;38393;52.404;13.532;2023-08-06T00:54:40;11.65;;;9.07;;
52480;SDS011;38393;52.404;13.532;2023-08-06T00:57:07;11.00;;;9.07;;
52480;SDS011;38393;52.404;13.532;2023-08-06T00:59:33;12.65;;;8.95;;
52480;SDS011;38393;52.404;13.532;2023-08-06T01:01:59;16.00;;;9.25;;
52480;SDS011;38393;52.404;13.532;2023-08-06T01:04:25;11.07;;;9.32;;
52480;SDS011;38393;52.404;13.532;2023-08-06T01:07:01;12.88;;;9.77;;
52480;SDS011;38393;52.404;13.532;2023-08-06T01:09:50;12.57;;;9.45;;
52480;SDS011;38393;52.404;13.532;2023-08-06T01:12:32;13.30;;;10.18;;
52480;SDS011;38393;52.404;13.532;2023-08-06T01:15:15;16.58;;;13.38;;
52480;SDS011;38393;52.404;13.532;2023-08-06T01:17:45;14.90;;;9.65;;
52480;SDS011;38393;52.404;13.532;2023-08-06T01:20:12;11.52;;;8.90;;
52480;SDS011;38393;52.404;13.532;2023-08-06T01:22:37;13.32;;;9.95;;
52480;SDS011;38393;52.404;13.532;2023-08-06T01:25:03;11.95;;;9.98;;
52480;SDS011;38393;52.404;13.532;2023-08-06T01:27:33;13.82;;;10.10;;
52480;SDS011;38393;52.404;13.532;2023-08-06T01:30:27;12.93;;;10.38;;
52480;SDS011;38393;52.404;13.532;2023-08-06T01:32:58;15.63;;;10.88;;
52480;SDS011;38393;52.404;13.532;2023-08-06T01:35:27;14.23;;;10.80;;
52480;SDS011;38393;52.404;13.532;2023-08-06T01:37:53;14.07;;;10.77;;
52480;SDS011;38393;52.404;13.532;2023-08-06T01:40:21;12.43;;;10.40;;
52480;SDS011;38393;52.404;13.532;2023-08-06T01:42:46;14.95;;;10.50;;
52480;SDS011;38393;52.404;13.532;2023-08-06T01:45:12;12.43;;;10.38;;
52480;SDS011;38393;52.404;13.532;2023-08-06T01:47:37;13.48;;;10.00;;
52480;SDS011;38393;52.404;13.532;2023-08-06T01:50:03;11.63;;;9.43;;
52480;SDS011;38393;52.404;13.532;2023-08-06T01:52:28;11.63;;;8.57;;
52480;SDS011;38393;52.404;13.532;2023-08-06T01:54:54;12.98;;;9.10;;
52480;SDS011;38393;52.404;13.532;2023-08-06T01:57:20;9.45;;;8.38;;
52480;SDS011;38393;52.404;13.532;2023-08-06T01:59:45;10.05;;;8.15;;
52480;SDS011;38393;52.404;13.532;2023-08-06T02:02:11;13.50;;;8.95;;
52480;SDS011;38393;52.404;13.532;2023-08-06T02:04:37;10.45;;;8.32;;
52480;SDS011;38393;52.404;13.532;2023-08-06T02:07:02;14.95;;;8.43;;
52480;SDS011;38393;52.404;13.532;2023-08-06T02:09:28;12.25;;;8.77;;
52480;SDS011;38393;52.404;13.532;2023-08-06T02:11:53;11.68;;;8.68;;
52480;SDS011;38393;52.404;13.532;2023-08-06T02:14:19;14.38;;;8.50;;
52480;SDS011;38393;52.404;13.532;2023-08-06T02:16:44;11.40;;;8.07;;
52480;SDS011;38393;52.404;13.532;2023-08-06T02:19:10;13.25;;;9.00;;
52480;SDS011;38393;52.404;13.532;2023-08-06T02:21:35;13.00;;;8.57;;
52480;SDS011;38393;52.404;13.532;2023-08-06T02:24:01;10.73;;;8.25;;
52480;SDS011;38393;52.404;13.532;2023-08-06T02:26:27;10.35;;;8.52;;
52480;SDS011;38393;52.404;13.532;2023-08-06T02:28:52;10.10;;;7.85;;
52480;SDS011;38393;52.404;13.532;2023-08-06T02:31:18;11.35;;;8.68;;
52480;SDS011;38393;52.404;13.532;2023-08-06T02:33:43;9.60;;;8.23;;
52480;SDS011;38393;52.404;13.532;2023-08-06T02:36:09;10.63;;;8.55;;
52480;SDS011;38393;52.404;13.532;2023-08-06T02:38:34;11.68;;;8.23;;
52480;SDS011;38393;52.404;13.532;2023-08-06T02:41:03;10.25;;;8.18;;
52480;SDS011;38393;52.404;13.532;2023-08-06T02:43:29;12.90;;;8.80;;
52480;SDS011;38393;52.404;13.532;2023-08-06T02:45:57;10.68;;;8.63;;
52480;SDS011;38393;52.404;13.532;2023-08-06T02:48:23;11.43;;;8.43;;
52480;SDS011;38393;52.404;13.532;2023-08-06T02:50:49;12.82;;;8.82;;
52480;SDS011;38393;52.404;13.532;2023-08-06T02:53:14;12.27;;;8.65;;
52480;SDS011;38393;52.404;13.532;2023-08-06T02:55:44;12.32;;;8.50;;
52480;SDS011;38393;52.404;13.532;2023-08-06T02:58:11;11.27;;;9.15;;
52480;SDS011;38393;52.404;13.532;2023-08-06T03:00:37;11.45;;;8.98;;
52480;SDS011;38393;52.404;13.532;2023-08-06T03:03:02;11.60;;;8.98;;
52480;SDS011;38393;52.404;13.532;2023-08-06T03:05:27;13.05;;;9.20;;
52480;SDS011;38393;52.404;13.532;2023-08-06T03:07:53;14.45;;;9.20;;
52480;SDS011;38393;52.404;13.532;2023-08-06T03:10:18;12.27;;;9.93;;
52480;SDS011;38393;52.404;13.532;2023-08-06T03:12:44;12.85;;;9.32;;
52480;SDS011;38393;52.404;13.532;2023-08-06T03:15:10;13.48;;;9.15;;
52480;SDS011;38393;52.404;13.532;2023-08-06T03:17:35;10.80;;;9.10;;
52480;SDS011;38393;52.404;13.532;2023-08-06T03:20:01;14.07;;;9.35;;
52480;SDS011;38393;52.404;13.532;2023-08-06T03:22:27;13.23;;;8.98;;
52480;SDS011;38393;52.404;13.532;2023-08-06T03:24:52;14.70;;;9.88;;
52480;SDS011;38393;52.404;13.532;2023-08-06T03:27:17;12.48;;;9.27;;
52480;SDS011;38393;52.404;13.532;2023-08-06T03:29:43;11.43;;;9.30;;
52480;SDS011;38393;52.404;13.532;2023-08-06T03:32:08;10.68;;;8.35;;
52480;SDS011;38393;52.404;13.532;2023-08-06T03:34:34;14.55;;;8.05;;
52480;SDS011;38393;52.404;13.532;2023-08-06T03:36:59;9.88;;;8.13;;
52480;SDS011;38393;52.404;13.532;2023-08-06T03:39:25;18.67;;;13.15;;
52480;SDS011;38393;52.404;13.532;2023-08-06T03:41:50;12.93;;;8.88;;
52480;SDS011;38393;52.404;13.532;2023-08-06T03:44:16;10.82;;;7.80;;
52480;SDS011;38393;52.404;13.532;2023-08-06T03:46:41;10.32;;;7.90;;
52480;SDS011;38393;52.404;13.532;2023-08-06T03:49:07;10.35;;;7.95;;
52480;SDS011;38393;52.404;13.532;2023-08-06T03:51:32;11.52;;;7.93;;
52480;SDS011;38393;52.404;13.532;2023-08-06T03:53:58;11.25;;;7.93;;
52480;SDS011;38393;52.404;13.532;2023-08-06T03:56:23;9.98;;;7.78;;
52480;SDS011;38393;52.404;13.532;2023-08-06T03:58:49;12.75;;;7.35;;
52480;SDS011;38393;52.404;13.532;2023-08-06T04:01:14;11.48;;;7.75;;
52480;SDS011;38393;52.404;13.532;2023-08-06T04:03:40;10.68;;;7.55;;
52480;SDS011;38393;52.404;13.532;2023-08-06T04:06:05;11.23;;;6.85;;
52480;SDS011;38393;52.404;13.532;2023-08-06T04:08:32;8.63;;;6.95;;
52480;SDS011;38393;52.404;13.532;2023-08-06T04:10:57;8.73;;;7.07;;
52480;SDS011;38393;52.404;13.532;2023-08-06T04:13:23;9.57;;;7.05;;
52480;SDS011;38393;52.404;13.532;2023-08-06T04:15:48;8.23;;;6.68;;
52480;SDS011;38393;52.404;13.532;2023-08-06T04:18:14;8.65;;;6.90;;
52480;SDS011;38393;52.404;13.532;2023-08-06T04:20:43;9.27;;;7.50;;
52480;SDS011;38393;52.404;13.532;2023-08-06T04:23:09;8.95;;;7.30;;
52480;SDS011;38393;52.404;13.532;2023-08-06T04:25:35;9.35;;;7.38;;
52480;SDS011;38393;52.404;13.532;2023-08-06T04:28:00;9.35;;;7.15;;
52480;SDS011;38393;52.404;13.532;2023-08-06T04:30:26;8.60;;;7.53;;
52480;SDS011;38393;52.404;13.532;2023-08-06T04:32:51;9.68;;;7.47;;
52480;SDS011;38393;52.404;13.532;2023-08-06T04:35:17;11.15;;;7.80;;
52480;SDS011;38393;52.404;13.532;2023-08-06T04:37:42;11.18;;;7.55;;
52480;SDS011;38393;52.404;13.532;2023-08-06T04:40:08;8.32;;;7.32;;
52480;SDS011;38393;52.404;13.532;2023-08-06T04:42:34;9.65;;;7.47;;
52480;SDS011;38393;52.404;13.532;2023-08-06T04:45:00;9.80;;;7.22;;
52480;SDS011;38393;52.404;13.532;2023-08-06T04:47:27;9.27;;;7.60;;
52480;SDS011;38393;52.404;13.532;2023-08-06T04:49:53;9.45;;;7.72;;
52480;SDS011;38393;52.404;13.532;2023-08-06T04:52:19;9.18;;;7.10;;
52480;SDS011;38393;52.404;13.532;2023-08-06T04:54:44;10.13;;;7.22;;
52480;SDS011;38393;52.404;13.532;2023-08-06T04:57:10;9.13;;;7.47;;
52480;SDS011;38393;52.404;13.532;2023-08-06T04:59:35;8.88;;;7.65;;
52480;SDS011;38393;52.404;13.532;2023-08-06T05:02:01;10.93;;;7.50;;
52480;SDS011;38393;52.404;13.532;2023-08-06T05:04:26;10.90;;;8.00;;
52480;SDS011;38393;52.404;13.532;2023-08-06T05:06:52;10.05;;;8.60;;
52480;SDS011;38393;52.404;13.532;2023-08-06T05:09:18;11.00;;;7.93;;
52480;SDS011;38393;52.404;13.532;2023-08-06T05:11:43;11.68;;;8.40;;
52480;SDS011;38393;52.404;13.532;2023-08-06T05:14:09;12.70;;;8.52;;
52480;SDS011;38393;52.404;13.532;2023-08-06T05:16:34;10.65;;;9.20;;
52480;SDS011;38393;52.404;13.532;2023-08-06T05:19:00;10.95;;;8.93;;
52480;SDS011;38393;52.404;13.532;2023-08-06T05:21:25;10.77;;;9.00;;
52480;SDS011;38393;52.404;13.532;2023-08-06T05:23:51;11.50;;;8.77;;
52480;SDS011;38393;52.404;13.532;2023-08-06T05:26:16;13.95;;;10.88;;
52480;SDS011;38393;52.404;13.532;2023-08-06T05:28:44;16.23;;;11.75;;
52480;SDS011;38393;52.404;13.532;2023-08-06T05:31:10;14.65;;;11.95;;
52480;SDS011;38393;52.404;13.532;2023-08-06T05:33:36;14.57;;;10.38;;
52480;SDS011;38393;52.404;13.532;2023-08-06T05:36:01;15.75;;;10.85;;
52480;SDS011;38393;52.404;13.532;2023-08-06T05:38:27;12.32;;;9.50;;
52480;SDS011;38393;52.404;13.532;2023-08-06T05:40:54;14.60;;;10.38;;
52480;SDS011;38393;52.404;13.532;2023-08-06T05:43:20;13.45;;;10.25;;
52480;SDS011;38393;52.404;13.532;2023-08-06T05:45:45;12.48;;;9.52;;
52480;SDS011;38393;52.404;13.532;2023-08-06T05:48:12;12.45;;;10.18;;
52480;SDS011;38393;52.404;13.532;2023-08-06T05:50:37;12.90;;;10.13;;
52480;SDS011;38393;52.404;13.532;2023-08-06T05:53:03;12.18;;;9.75;;
52480;SDS011;38393;52.404;13.532;2023-08-06T05:55:28;15.82;;;11.20;;
52480;SDS011;38393;52.404;13.532;2023-08-06T05:57:54;13.90;;;10.55;;
52480;SDS011;38393;52.404;13.532;2023-08-06T06:00:20;14.13;;;10.82;;
52480;SDS011;38393;52.404;13.532;2023-08-06T06:02:46;12.45;;;9.20;;
52480;SDS011;38393;52.404;13.532;2023-08-06T06:05:12;13.60;;;10.85;;
52480;SDS011;38393;52.404;13.532;2023-08-06T06:07:37;14.25;;;11.23;;
52480;SDS011;38393;52.404;13.532;2023-08-06T06:10:03;13.88;;;11.00;;
52480;SDS011;38393;52.404;13.532;2023-08-06T06:12:28;13.68;;;10.45;;
52480;SDS011;38393;52.404;13.532;2023-08-06T06:14:54;14.68;;;10.68;;
52480;SDS011;38393;52.404;13.532;2023-08-06T06:17:19;13.35;;;10.77;;
52480;SDS011;38393;52.404;13.532;2023-08-06T06:19:45;13.68;;;11.07;;
52480;SDS011;38393;52.404;13.532;2023-08-06T06:22:11;13.68;;;11.07;;
52480;SDS011;38393;52.404;13.532;2023-08-06T06:24:37;12.77;;;10.57;;
52480;SDS011;38393;52.404;13.532;2023-08-06T06:27:02;12.73;;;10.75;;
52480;SDS011;38393;52.404;13.532;2023-08-06T06:29:28;12.55;;;9.80;;
52480;SDS011;38393;52.404;13.532;2023-08-06T06:31:54;12.95;;;9.95;;
52480;SDS011;38393;52.404;13.532;2023-08-06T06:34:19;12.35;;;9.23;;
52480;SDS011;38393;52.404;13.532;2023-08-06T06:36:45;14.98;;;9.80;;
52480;SDS011;38393;52.404;13.532;2023-08-06T06:39:10;12.52;;;9.20;;
52480;SDS011;38393;52.404;13.532;2023-08-06T06:41:37;10.45;;;8.68;;
52480;SDS011;38393;52.404;13.532;2023-08-06T06:44:02;11.43;;;9.00;;
52480;SDS011;38393;52.404;13.532;2023-08-06T06:46:28;11.77;;;9.30;;
52480;SDS011;38393;52.404;13.532;2023-08-06T06:48:53;13.32;;;11.10;;
52480;SDS011;38393;52.404;13.532;2023-08-06T06:51:18;13.48;;;9.68;;
52480;SDS011;38393;52.404;13.532;2023-08-06T06:53:44;12.40;;;9.75;;
52480;SDS011;38393;52.404;13.532;2023-08-06T06:56:09;10.48;;;8.40;;
52480;SDS011;38393;52.404;13.532;2023-08-06T06:58:35;8.27;;;7.32;;
52480;SDS011;38393;52.404;13.532;2023-08-06T07:01:00;9.48;;;7.78;;
52480;SDS011;38393;52.404;13.532;2023-08-06T07:03:26;8.90;;;7.28;;
52480;SDS011;38393;52.404;13.532;2023-08-06T07:05:51;9.43;;;7.40;;
52480;SDS011;38393;52.404;13.532;2023-08-06T07:08:21;11.52;;;7.47;;
52480;SDS011;38393;52.404;13.532;2023-08-06T07:10:47;9.32;;;7.53;;
52480;SDS011;38393;52.404;13.532;2023-08-06T07:13:12;12.13;;;8.77;;
52480;SDS011;38393;52.404;13.532;2023-08-06T07:15:38;9.30;;;8.20;;
52480;SDS011;38393;52.404;13.532;2023-08-06T07:18:03;10.13;;;8.60;;
52480;SDS011;38393;52.404;13.532;2023-08-06T07:20:29;10.90;;;8.73;;
52480;SDS011;38393;52.404;13.532;2023-08-06T07:22:56;10.13;;;8.27;;
52480;SDS011;38393;52.404;13.532;2023-08-06T07:25:22;11.88;;;8.68;;
52480;SDS011;38393;52.404;13.532;2023-08-06T07:27:47;10.27;;;8.32;;
52480;SDS011;38393;52.404;13.532;2023-08-06T07:30:13;9.65;;;8.20;;
52480;SDS011;38393;52.404;13.532;2023-08-06T07:32:38;12.38;;;8.77;;
52480;SDS011;38393;52.404;13.532;2023-08-06T07:35:04;11.90;;;9.75;;
52480;SDS011;38393;52.404;13.532;2023-08-06T07:37:30;12.23;;;9.77;;
52480;SDS011;38393;52.404;13.532;2023-08-06T07:39:56;11.43;;;9.68;;
52480;SDS011;38393;52.404;13.532;2023-08-06T07:42:22;13.02;;;10.32;;
52480;SDS011;38393;52.404;13.532;2023-08-06T07:44:53;11.77;;;9.88;;
52480;SDS011;38393;52.404;13.532;2023-08-06T07:47:20;11.60;;;9.98;;
52480;SDS011;38393;52.404;13.532;2023-08-06T07:49:46;12.13;;;8.98;;
52480;SDS011;38393;52.404;13.532;2023-08-06T07:52:11;11.63;;;9.30;;
52480;SDS011;38393;52.404;13.532;2023-08-06T07:54:37;12.10;;;9.63;;
52480;SDS011;38393;52.404;13.532;2023-08-06T07:57:02;12.48;;;9.88;;
52480;SDS011;38393;52.404;13.532;2023-08-06T07:59:28;13.25;;;9.93;;
52480;SDS011;38393;52.404;13.532;2023-08-06T08:01:53;12.10;;;10.30;;
52480;SDS011;38393;52.404;13.532;2023-08-06T08:04:19;12.55;;;9.15;;
52480;SDS011;38393;52.404;13.532;2023-08-06T08:06:45;10.68;;;9.10;;
52480;SDS011;38393;52.404;13.532;2023-08-06T08:09:11;12.20;;;9.20;;
52480;SDS011;38393;52.404;13.532;2023-08-06T08:11:38;15.40;;;10.07;;
52480;SDS011;38393;52.404;13.532;2023-08-06T08:14:04;12.07;;;9.70;;
52480;SDS011;38393;52.404;13.532;2023-08-06T08:16:29;10.68;;;8.77;;
52480;SDS011;38393;52.404;13.532;2023-08-06T08:18:55;11.90;;;9.00;;
52480;SDS011;38393;52.404;13.532;2023-08-06T08:21:20;13.82;;;9.73;;
52480;SDS011;38393;52.404;13.532;2023-08-06T08:23:46;9.88;;;8.25;;
52480;SDS011;38393;52.404;13.532;2023-08-06T08:26:11;9.88;;;8.35;;
52480;SDS011;38393;52.404;13.532;2023-08-06T08:28:37;13.18;;;7.80;;
52480;SDS011;38393;52.404;13.532;2023-08-06T08:31:02;11.43;;;8.88;;
52480;SDS011;38393;52.404;13.532;2023-08-06T08:33:27;12.07;;;9.18;;
52480;SDS011;38393;52.404;13.532;2023-08-06T08:35:53;11.82;;;9.68;;
52480;SDS011;38393;52.404;13.532;2023-08-06T08:38:18;13.13;;;9.90;;
52480;SDS011;38393;52.404;13.532;2023-08-06T08:40:47;9.45;;;8.35;;
52480;SDS011;38393;52.404;13.532;2023-08-06T08:43:19;11.18;;;9.20;;
52480;SDS011;38393;52.404;13.532;2023-08-06T08:45:46;10.93;;;8.90;;
52480;SDS011;38393;52.404;13.532;2023-08-06T08:48:15;12.05;;;9.73;;
52480;SDS011;38393;52.404;13.532;2023-08-06T08:50:44;11.23;;;9.23;;
52480;SDS011;38393;52.404;13.532;2023-08-06T08:53:11;12.98;;;10.18;;
52480;SDS011;38393;52.404;13.532;2023-08-06T08:55:38;11.57;;;9.85;;
52480;SDS011;38393;52.404;13.532;2023-08-06T08:58:05;11.18;;;9.43;;
52480;SDS011;38393;52.404;13.532;2023-08-06T09:00:30;11.20;;;9.18;;
52480;SDS011;38393;52.404;13.532;2023-08-06T09:02:57;11.55;;;9.35;;
52480;SDS011;38393;52.404;13.532;2023-08-06T09:05:25;12.52;;;9.68;;
52480;SDS011;38393;52.404;13.532;2023-08-06T09:07:53;11.18;;;9.70;;
52480;SDS011;38393;52.404;13.532;2023-08-06T09:10:20;11.70;;;9.15;;
52480;SDS011;38393;52.404;13.532;2023-08-06T09:12:50;12.80;;;9.85;;
52480;SDS011;38393;52.404;13.532;2023-08-06T09:15:17;10.88;;;9.65;;
52480;SDS011;38393;52.404;13.532;2023-08-06T09:17:43;12.65;;;10.38;;
52480;SDS011;38393;52.404;13.532;2023-08-06T09:20:12;12.27;;;9.70;;
52480;SDS011;38393;52.404;13.532;2023-08-06T09:22:39;10.90;;;9.23;;
52480;SDS011;38393;52.404;13.532;2023-08-06T09:25:06;12.55;;;10.07;;
52480;SDS011;38393;52.404;13.532;2023-08-06T09:27:35;11.25;;;10.05;;
52480;SDS011;38393;52.404;13.532;2023-08-06T09:30:04;11.75;;;10.07;;
52480;SDS011;38393;52.404;13.532;2023-08-06T09:32:44;12.40;;;10.60;;
52480;SDS011;38393;52.404;13.532;2023-08-06T09:35:16;12.75;;;10.20;;
52480;SDS011;38393;52.404;13.532;2023-08-06T09:37:42;14.45;;;11.57;;
52480;SDS011;38393;52.404;13.532;2023-08-06T09:40:27;13.65;;;11.10;;
52480;SDS011;38393;52.404;13.532;2023-08-06T09:42:54;13.18;;;11.38;;
52480;SDS011;38393;52.404;13.532;2023-08-06T09:45:20;13.68;;;11.52;;
52480;SDS011;38393;52.404;13.532;2023-08-06T09:47:47;12.43;;;10.27;;
52480;SDS011;38393;52.404;13.532;2023-08-06T09:50:20;13.57;;;10.85;;
52480;SDS011;38393;52.404;13.532;2023-08-06T09:52:48;14.70;;;11.75;;
52480;SDS011;38393;52.404;13.532;2023-08-06T09:55:16;14.15;;;11.50;;
52480;SDS011;38393;52.404;13.532;2023-08-06T09:57:43;15.20;;;12.38;;
52480;SDS011;38393;52.404;13.532;2023-08-06T10:00:09;12.98;;;11.30;;
52480;SDS011;38393;52.404;13.532;2023-08-06T10:02:38;13.13;;;10.77;;
52480;SDS011;38393;52.404;13.532;2023-08-06T10:05:05;14.25;;;11.65;;
52480;SDS011;38393;52.404;13.532;2023-08-06T10:07:34;14.80;;;12.18;;
52480;SDS011;38393;52.404;13.532;2023-08-06T10:10:00;16.17;;;12.40;;
52480;SDS011;38393;52.404;13.532;2023-08-06T10:12:28;16.35;;;12.63;;
52480;SDS011;38393;52.404;13.532;2023-08-06T10:14:58;14.82;;;12.98;;
52480;SDS011;38393;52.404;13.532;2023-08-06T10:17:26;16.50;;;13.60;;
52480;SDS011;38393;52.404;13.532;2023-08-06T10:19:52;17.20;;;12.20;;
52480;SDS011;38393;52.404;13.532;2023-08-06T10:22:20;10.93;;;8.85;;
52480;SDS011;38393;52.404;13.532;2023-08-06T10:27:28;7.93;;;6.78;;
52480;SDS011;38393;52.404;13.532;2023-08-06T10:30:20;9.25;;;7.50;;
52480;SDS011;38393;52.404;13.532;2023-08-06T10:32:49;8.23;;;6.18;;
52480;SDS011;38393;52.404;13.532;2023-08-06T10:40:43;9.60;;;7.55;;
52480;SDS011;38393;52.404;13.532;2023-08-06T10:43:52;9.38;;;7.38;;
52480;SDS011;38393;52.404;13.532;2023-08-06T10:46:21;9.68;;;8.20;;
52480;SDS011;38393;52.404;13.532;2023-08-06T10:48:47;9.10;;;7.78;;
52480;SDS011;38393;52.404;13.532;2023-08-06T10:51:13;9.13;;;7.97;;
52480;SDS011;38393;52.404;13.532;2023-08-06T10:53:46;9.63;;;7.88;;
52480;SDS011;38393;52.404;13.532;2023-08-06T10:56:19;9.73;;;7.72;;
52480;SDS011;38393;52.404;13.532;2023-08-06T10:58:49;7.63;;;6.80;;
52480;SDS011;38393;52.404;13.532;2023-08-06T11:01:15;9.75;;;6.68;;
52480;SDS011;38393;52.404;13.532;2023-08-06T11:03:45;8.10;;;7.30;;
52480;SDS011;38393;52.404;13.532;2023-08-06T11:06:16;8.57;;;7.55;;
52480;SDS011;38393;52.404;13.532;2023-08-06T11:08:47;8.75;;;6.47;;
52480;SDS011;38393;52.404;13.532;2023-08-06T11:11:18;7.57;;;5.95;;
52480;SDS011;38393;52.404;13.532;2023-08-06T11:13:44;9.13;;;7.03;;
52480;SDS011;38393;52.404;13.532;2023-08-06T11:16:18;8.73;;;7.43;;
52480;SDS011;38393;52.404;13.532;2023-08-06T11:18:45;9.60;;;7.75;;
52480;SDS011;38393;52.404;13.532;2023-08-06T11:21:12;9.05;;;7.57;;
52480;SDS011;38393;52.404;13.532;2023-08-06T11:23:38;10.68;;;7.57;;
52480;SDS011;38393;52.404;13.532;2023-08-06T11:26:05;10.60;;;7.97;;
52480;SDS011;38393;52.404;13.532;2023-08-06T11:28:30;9.93;;;7.40;;
52480;SDS011;38393;52.404;13.532;2023-08-06T11:30:55;10.77;;;8.07;;
52480;SDS011;38393;52.404;13.532;2023-08-06T11:33:23;12.68;;;8.85;;
52480;SDS011;38393;52.404;13.532;2023-08-06T11:35:52;13.02;;;8.75;;
52480;SDS011;38393;52.404;13.532;2023-08-06T11:38:19;11.73;;;9.13;;
52480;SDS011;38393;52.404;13.532;2023-08-06T11:40:45;11.82;;;9.43;;
52480;SDS011;38393;52.404;13.532;2023-08-06T11:43:11;11.45;;;8.85;;
52480;SDS011;38393;52.404;13.532;2023-08-06T11:45:37;10.07;;;8.70;;
52480;SDS011;38393;52.404;13.532;2023-08-06T11:48:03;9.32;;;7.20;;
52480;SDS011;38393;52.404;13.532;2023-08-06T11:50:29;9.25;;;6.78;;
52480;SDS011;38393;52.404;13.532;2023-08-06T11:52:59;8.13;;;6.72;;
52480;SDS011;38393;52.404;13.532;2023-08-06T11:55:25;8.60;;;6.70;;
52480;SDS011;38393;52.404;13.532;2023-08-06T11:57:53;8.00;;;6.68;;
52480;SDS011;38393;52.404;13.532;2023-08-06T12:00:19;8.77;;;6.68;;
52480;SDS011;38393;52.404;13.532;2023-08-06T12:02:47;10.77;;;6.53;;
52480;SDS011;38393;52.404;13.532;2023-08-06T12:05:15;7.00;;;6.07;;
52480;SDS011;38393;52.404;13.532;2023-08-06T12:07:45;8.55;;;6.82;;
52480;SDS011;38393;52.404;13.532;2023-08-06T12:10:12;7.65;;;6.50;;
52480;SDS011;38393;52.404;13.532;2023-08-06T12:12:38;8.98;;;6.63;;
52480;SDS011;38393;52.404;13.532;2023-08-06T12:15:04;7.72;;;6.70;;
52480;SDS011;38393;52.404;13.532;2023-08-06T12:17:31;12.38;;;7.80;;
52480;SDS011;38393;52.404;13.532;2023-08-06T12:19:57;9.20;;;7.93;;
52480;SDS011;38393;52.404;13.532;2023-08-06T12:22:22;10.38;;;8.55;;
52480;SDS011;38393;52.404;13.532;2023-08-06T12:24:48;11.07;;;9.48;;
52480;SDS011;38393;52.404;13.532;2023-08-06T12:27:14;11.82;;;9.57;;
52480;SDS011;38393;52.404;13.532;2023-08-06T12:29:44;11.35;;;9.77;;
52480;SDS011;38393;52.404;13.532;2023-08-06T12:32:13;11.50;;;9.48;;
52480;SDS011;38393;52.404;13.532;2023-08-06T12:34:39;11.20;;;9.73;;
52480;SDS011;38393;52.404;13.532;2023-08-06T12:37:05;11.55;;;8.95;;
52480;SDS011;38393;52.404;13.532;2023-08-06T12:39:34;14.88;;;10.38;;
52480;SDS011;38393;52.404;13.532;2023-08-06T12:42:01;11.35;;;9.32;;
52480;SDS011;38393;52.404;13.532;2023-08-06T12:44:27;12.13;;;10.60;;
52480;SDS011;38393;52.404;13.532;2023-08-06T12:46:53;14.52;;;11.07;;
52480;SDS011;38393;52.404;13.532;2023-08-06T12:49:19;12.98;;;10.85;;
52480;SDS011;38393;52.404;13.532;2023-08-06T12:51:50;11.60;;;9.77;;
52480;SDS011;38393;52.404;13.532;2023-08-06T12:54:16;14.57;;;11.13;;
52480;SDS011;38393;52.404;13.532;2023-08-06T12:56:43;14.00;;;10.73;;
52480;SDS011;38393;52.404;13.532;2023-08-06T12:59:09;13.18;;;10.85;;
52480;SDS011;38393;52.404;13.532;2023-08-06T13:01:34;12.20;;;10.18;;
52480;SDS011;38393;52.404;13.532;2023-08-06T13:04:00;12.02;;;9.43;;
52480;SDS011;38393;52.404;13.532;2023-08-06T13:06:25;9.95;;;8.32;;
52480;SDS011;38393;52.404;13.532;2023-08-06T13:08:51;10.13;;;7.82;;
52480;SDS011;38393;52.404;13.532;2023-08-06T13:11:16;8.00;;;6.65;;
52480;SDS011;38393;52.404;13.532;2023-08-06T13:13:42;8.45;;;6.60;;
52480;SDS011;38393;52.404;13.532;2023-08-06T13:16:07;8.85;;;7.03;;
52480;SDS011;38393;52.404;13.532;2023-08-06T13:18:33;9.93;;;7.35;;
52480;SDS011;38393;52.404;13.532;2023-08-06T13:20:58;9.25;;;7.38;;
52480;SDS011;38393;52.404;13.532;2023-08-06T13:23:24;10.40;;;7.93;;
52480;SDS011;38393;52.404;13.532;2023-08-06T13:25:49;11.27;;;8.20;;
52480;SDS011;38393;52.404;13.532;2023-08-06T13:28:15;11.40;;;7.60;;
52480;SDS011;38393;52.404;13.532;2023-08-06T13:30:40;11.25;;;7.85;;
52480;SDS011;38393;52.404;13.532;2023-08-06T13:33:09;9.27;;;7.47;;
52480;SDS011;38393;52.404;13.532;2023-08-06T13:35:34;9.63;;;7.90;;
52480;SDS011;38393;52.404;13.532;2023-08-06T13:38:00;12.10;;;8.50;;
52480;SDS011;38393;52.404;13.532;2023-08-06T13:40:27;10.27;;;7.53;;
52480;SDS011;38393;52.404;13.532;2023-08-06T13:42:53;10.10;;;7.95;;
52480;SDS011;38393;52.404;13.532;2023-08-06T13:45:19;10.98;;;8.63;;
52480;SDS011;38393;52.404;13.532;2023-08-06T13:47:44;10.98;;;8.98;;
52480;SDS011;38393;52.404;13.532;2023-08-06T13:50:10;8.85;;;7.50;;
52480;SDS011;38393;52.404;13.532;2023-08-06T13:52:35;11.10;;;7.82;;
52480;SDS011;38393;52.404;13.532;2023-08-06T13:55:01;9.00;;;7.47;;
52480;SDS011;38393;52.404;13.532;2023-08-06T13:57:27;10.27;;;7.75;;
52480;SDS011;38393;52.404;13.532;2023-08-06T13:59:52;10.13;;;7.43;;
52480;SDS011;38393;52.404;13.532;2023-08-06T14:02:17;10.00;;;7.40;;
52480;SDS011;38393;52.404;13.532;2023-08-06T14:04:43;10.32;;;7.05;;
52480;SDS011;38393;52.404;13.532;2023-08-06T14:07:08;10.32;;;8.20;;
52480;SDS011;38393;52.404;13.532;2023-08-06T14:09:34;11.43;;;7.78;;
52480;SDS011;38393;52.404;13.532;2023-08-06T14:12:00;11.48;;;7.28;;
52480;SDS011;38393;52.404;13.532;2023-08-06T14:14:25;10.77;;;7.85;;
52480;SDS011;38393;52.404;13.532;2023-08-06T14:16:52;9.60;;;7.10;;
52480;SDS011;38393;52.404;13.532;2023-08-06T14:19:19;10.60;;;7.35;;
52480;SDS011;38393;52.404;13.532;2023-08-06T14:21:44;10.55;;;7.15;;
52480;SDS011;38393;52.404;13.532;2023-08-06T14:24:10;11.75;;;7.50;;
52480;SDS011;38393;52.404;13.532;2023-08-06T14:26:35;9.18;;;7.15;;